createdAt,value
2023-03-29T00:02:51.950Z,100227.22
2023-03-29T00:05:20.717Z,100231.22
2023-03-29T00:07:50.094Z,100230.28
2023-03-29T00:10:29.786Z,100224.56
2023-03-29T00:13:01.271Z,100224.56
2023-03-29T00:15:29.247Z,100232.66
2023-03-29T00:17:57.598Z,100242.44
2023-03-29T00:20:29.145Z,100231.38
2023-03-29T00:23:02.969Z,100233.22
2023-03-29T00:25:31.228Z,100234.31
2023-03-29T00:27:59.597Z,100231.22
2023-03-29T00:30:27.546Z,100242.59
2023-03-29T00:32:56.094Z,100237.31
2023-03-29T00:35:24.401Z,100234.97
2023-03-29T00:38:06.232Z,100235.72
2023-03-29T00:40:35.163Z,100242.22
2023-03-29T00:43:05.804Z,100238.94
2023-03-29T00:45:33.586Z,100242.22
2023-03-29T00:48:03.390Z,100233.63
2023-03-29T00:50:48.189Z,100240.91
2023-03-29T00:53:29.757Z,100244.06
2023-03-29T00:55:57.422Z,100235.34
2023-03-29T00:58:30.681Z,100237.44
2023-03-29T01:01:07.284Z,100231.41
2023-03-29T01:03:40.870Z,100229.66
2023-03-29T01:06:09.409Z,100225.31
2023-03-29T01:08:41.820Z,100227.50
2023-03-29T01:11:18.091Z,100225.72
2023-03-29T01:13:51.239Z,100227.31
2023-03-29T01:16:20.119Z,100224.66
2023-03-29T01:18:48.570Z,100225.50
2023-03-29T01:21:25.409Z,100226.50
2023-03-29T01:24:03.203Z,100221.75
2023-03-29T01:26:40.197Z,100221.72
2023-03-29T01:29:22.291Z,100229.06
2023-03-29T01:31:58.221Z,100227.84
2023-03-29T01:34:33.432Z,100227.47
2023-03-29T01:37:04.101Z,100220.84
2023-03-29T01:39:33.666Z,100221.19
2023-03-29T01:42:17.301Z,100221.47
2023-03-29T01:44:59.043Z,100221.00
2023-03-29T01:47:36.446Z,100225.38
2023-03-29T01:50:32.536Z,100224.69
2023-03-29T01:53:06.264Z,100213.34
2023-03-29T01:55:37.287Z,100221.28
2023-03-29T01:58:06.641Z,100220.75
2023-03-29T02:00:35.460Z,100223.78
2023-03-29T02:03:08.190Z,100226.41
2023-03-29T02:05:37.279Z,100222.75
2023-03-29T02:08:07.867Z,100222.63
2023-03-29T02:10:36.002Z,100228.88
2023-03-29T02:13:05.129Z,100219.75
2023-03-29T02:15:33.921Z,100222.31
2023-03-29T02:18:04.789Z,100224.06
2023-03-29T02:20:35.888Z,100224.88
2023-03-29T02:23:09.559Z,100223.22
2023-03-29T02:25:37.365Z,100219.22
2023-03-29T02:28:06.424Z,100222.44
2023-03-29T02:30:57.335Z,100229.72
2023-03-29T02:33:41.342Z,100218.59
2023-03-29T02:36:21.907Z,100229.12
2023-03-29T02:38:52.743Z,100231.13
2023-03-29T02:41:22.466Z,100240.72
2023-03-29T02:43:50.748Z,100245.41
2023-03-29T02:46:19.125Z,100239.53
2023-03-29T02:48:48.664Z,100240.75
2023-03-29T02:51:22.735Z,100248.91
2023-03-29T02:54:12.731Z,100245.41
2023-03-29T02:56:56.442Z,100238.16
2023-03-29T02:59:24.297Z,100243.59
2023-03-29T03:01:52.736Z,100249.50
2023-03-29T03:04:20.930Z,100247.88
2023-03-29T03:06:49.243Z,100241.75
2023-03-29T03:09:17.465Z,100246.25
2023-03-29T03:11:45.625Z,100252.53
2023-03-29T03:14:13.396Z,100250.72
2023-03-29T03:16:41.488Z,100245.22
2023-03-29T03:19:09.499Z,100250.50
2023-03-29T03:21:37.110Z,100249.31
2023-03-29T03:24:05.758Z,100253.75
2023-03-29T03:26:33.838Z,100246.25
2023-03-29T03:29:01.632Z,100254.97
2023-03-29T03:31:31.861Z,100261.88
2023-03-29T03:34:01.989Z,100254.97
2023-03-29T03:36:30.343Z,100255.75
2023-03-29T03:38:58.155Z,100264.28
2023-03-29T03:41:26.316Z,100260.63
2023-03-29T03:43:54.754Z,100258.63
2023-03-29T03:46:23.210Z,100263.25
2023-03-29T03:48:51.005Z,100257.19
2023-03-29T03:51:19.477Z,100266.50
2023-03-29T03:53:47.135Z,100270.56
2023-03-29T03:56:17.207Z,100266.69
2023-03-29T03:58:45.670Z,100272.53
2023-03-29T04:01:13.865Z,100271.53
2023-03-29T04:03:42.696Z,100266.84
2023-03-29T04:06:13.127Z,100274.34
2023-03-29T04:08:41.664Z,100275.81
2023-03-29T04:11:10.177Z,100273.56
2023-03-29T04:13:37.967Z,100274.75
2023-03-29T04:16:07.446Z,100273.94
2023-03-29T04:18:35.557Z,100265.03
2023-03-29T04:21:03.754Z,100269.34
2023-03-29T04:23:33.950Z,100265.09
2023-03-29T04:26:02.029Z,100261.44
2023-03-29T04:28:31.678Z,100267.50
2023-03-29T04:31:00.703Z,100270.75
2023-03-29T04:33:29.611Z,100277.84
2023-03-29T04:35:59.359Z,100275.63
2023-03-29T04:38:27.138Z,100272.59
2023-03-29T04:40:55.924Z,100280.06
2023-03-29T04:43:24.001Z,100268.72
2023-03-29T04:45:53.318Z,100271.16
2023-03-29T04:48:24.159Z,100269.94
2023-03-29T04:50:51.901Z,100263.09
2023-03-29T04:53:21.177Z,100262.28
2023-03-29T04:55:50.008Z,100257.63
2023-03-29T04:58:20.746Z,100258.81
2023-03-29T05:00:50.238Z,100262.28
2023-03-29T05:03:19.442Z,100261.47
2023-03-29T05:05:48.003Z,100258.00
2023-03-29T05:08:16.095Z,100259.84
2023-03-29T05:10:45.431Z,100267.72
2023-03-29T05:13:13.632Z,100273.41
2023-03-29T05:15:42.510Z,100280.53
2023-03-29T05:18:10.318Z,100291.25
2023-03-29T05:20:38.008Z,100285.31
2023-03-29T05:23:06.196Z,100287.75
2023-03-29T05:25:36.881Z,100291.75
2023-03-29T05:28:04.801Z,100285.00
2023-03-29T05:30:33.260Z,100288.59
2023-03-29T05:33:04.361Z,100286.53
2023-03-29T05:35:33.040Z,100278.34
2023-03-29T05:38:01.154Z,100280.13
2023-03-29T05:40:28.858Z,100293.25
2023-03-29T05:42:58.628Z,100286.75
2023-03-29T05:45:26.374Z,100285.75
2023-03-29T05:47:54.725Z,100285.25
2023-03-29T05:50:22.945Z,100291.09
2023-03-29T05:52:50.746Z,100287.16
2023-03-29T05:55:18.750Z,100301.06
2023-03-29T05:57:46.826Z,100302.03
2023-03-29T06:00:15.444Z,100298.22
2023-03-29T06:02:43.571Z,100300.56
2023-03-29T06:05:12.018Z,100305.09
2023-03-29T06:07:40.015Z,100306.50
2023-03-29T06:10:10.149Z,100304.50
2023-03-29T06:12:38.962Z,100307.53
2023-03-29T06:15:06.962Z,100311.16
2023-03-29T06:17:35.300Z,100314.91
2023-03-29T06:20:03.276Z,100307.09
2023-03-29T06:22:31.565Z,100303.69
2023-03-29T06:24:59.552Z,100301.09
2023-03-29T06:27:27.535Z,100304.59
2023-03-29T06:29:55.452Z,100309.59
2023-03-29T06:32:23.474Z,100319.78
2023-03-29T06:34:51.649Z,100317.22
2023-03-29T06:37:19.822Z,100316.03
2023-03-29T06:39:50.818Z,100324.19
2023-03-29T06:42:21.839Z,100321.63
2023-03-29T06:44:50.410Z,100332.31
2023-03-29T06:47:18.382Z,100330.91
2023-03-29T06:49:46.087Z,100327.88
2023-03-29T06:52:14.552Z,100331.69
2023-03-29T06:54:43.040Z,100330.75
2023-03-29T06:57:10.842Z,100329.34
2023-03-29T06:59:39.214Z,100331.47
2023-03-29T07:02:09.499Z,100338.69
2023-03-29T07:04:38.954Z,100340.09
2023-03-29T07:07:07.456Z,100330.03
2023-03-29T07:09:35.539Z,100342.47
2023-03-29T07:12:04.953Z,100344.38
2023-03-29T07:14:33.249Z,100342.75
2023-03-29T07:17:00.842Z,100342.13
2023-03-29T07:19:29.110Z,100348.81
2023-03-29T07:21:59.278Z,100349.41
2023-03-29T07:24:29.189Z,100344.38
2023-03-29T07:27:04.205Z,100352.41
2023-03-29T07:29:33.803Z,100350.66
2023-03-29T07:32:02.241Z,100350.44
2023-03-29T07:34:31.986Z,100354.81
2023-03-29T07:37:00.031Z,100348.84
2023-03-29T07:39:28.063Z,100348.94
2023-03-29T07:41:57.750Z,100353.47
2023-03-29T07:44:25.858Z,100354.16
2023-03-29T07:46:54.129Z,100354.94
2023-03-29T07:49:22.280Z,100354.47
2023-03-29T07:51:50.052Z,100361.91
2023-03-29T07:54:17.985Z,100364.88
2023-03-29T07:56:46.770Z,100367.06
2023-03-29T07:59:15.644Z,100364.50
2023-03-29T08:01:43.854Z,100362.78
2023-03-29T08:04:12.107Z,100364.12
2023-03-29T08:06:42.841Z,100360.72
2023-03-29T08:09:10.502Z,100352.31
2023-03-29T08:11:42.942Z,100356.97
2023-03-29T08:19:34.236Z,100354.31
2023-03-29T08:28:06.975Z,100363.19
2023-03-29T08:33:05.580Z,100346.81
2023-03-29T08:35:33.698Z,100343.72
2023-03-29T08:38:03.790Z,100351.44
2023-03-29T08:40:31.910Z,100342.50
2023-03-29T08:43:12.286Z,100340.41
2023-03-29T08:46:05.600Z,100347.41
2023-03-29T08:48:44.523Z,100347.81
2023-03-29T08:51:31.765Z,100338.56
2023-03-29T08:54:06.441Z,100333.84
2023-03-29T08:56:38.593Z,100345.75
2023-03-29T08:59:24.986Z,100350.28
2023-03-29T09:01:56.197Z,100340.16
2023-03-29T09:04:27.833Z,100338.75
2023-03-29T09:06:56.723Z,100329.72
2023-03-29T09:09:33.630Z,100330.53
2023-03-29T09:12:08.375Z,100328.31
2023-03-29T09:14:55.201Z,100332.84
2023-03-29T09:17:52.289Z,100329.63
2023-03-29T09:20:40.819Z,100330.31
2023-03-29T09:23:11.974Z,100327.75
2023-03-29T09:25:54.303Z,100314.13
2023-03-29T09:28:31.459Z,100317.88
2023-03-29T09:31:11.457Z,100311.72
2023-03-29T09:33:59.307Z,100311.72
2023-03-29T09:36:33.214Z,100310.00
2023-03-29T09:39:01.554Z,100302.34
2023-03-29T09:41:35.269Z,100302.56
2023-03-29T09:44:10.869Z,100297.72
2023-03-29T09:46:50.151Z,100302.53
2023-03-29T09:49:21.385Z,100308.88
2023-03-29T09:51:49.775Z,100292.94
2023-03-29T09:54:18.774Z,100293.94
2023-03-29T09:56:47.767Z,100286.75
2023-03-29T09:59:16.531Z,100281.28
2023-03-29T10:01:44.393Z,100281.28
2023-03-29T10:04:14.989Z,100278.34
2023-03-29T10:06:46.062Z,100279.69
2023-03-29T10:09:17.291Z,100279.69
2023-03-29T10:11:52.239Z,100276.75
2023-03-29T10:14:33.706Z,100265.25
2023-03-29T10:17:05.666Z,100254.78
2023-03-29T10:19:35.396Z,100261.22
2023-03-29T10:22:27.457Z,100258.28
2023-03-29T10:24:58.685Z,100258.53
2023-03-29T10:27:28.458Z,100249.09
2023-03-29T10:29:59.652Z,100249.97
2023-03-29T10:32:32.097Z,100247.03
2023-03-29T10:35:07.911Z,100255.03
2023-03-29T10:37:35.492Z,100252.62
2023-03-29T10:40:03.958Z,100243.53
2023-03-29T10:42:32.031Z,100247.81
2023-03-29T10:44:59.870Z,100240.87
2023-03-29T10:47:31.870Z,100237.22
2023-03-29T10:50:02.266Z,100237.97
2023-03-29T10:52:30.495Z,100235.56
2023-03-29T10:54:58.176Z,100235.56
2023-03-29T10:57:42.824Z,100238.59
2023-03-29T11:00:18.235Z,100228.94
2023-03-29T11:03:07.766Z,100223.69
2023-03-29T11:05:54.293Z,100221.34
2023-03-29T11:08:29.740Z,100218.50
2023-03-29T11:11:32.023Z,100216.72
2023-03-29T11:14:02.357Z,100219.91
2023-03-29T11:16:32.178Z,100211.31
2023-03-29T11:19:24.146Z,100206.66
2023-03-29T11:22:10.137Z,100217.47
2023-03-29T11:25:13.843Z,100217.66
2023-03-29T11:27:57.889Z,100217.78
2023-03-29T11:30:32.922Z,100206.25
2023-03-29T11:36:37.483Z,100200.94
2023-03-29T11:39:12.093Z,100199.50
2023-03-29T11:41:43.110Z,100192.63
2023-03-29T11:44:21.132Z,100194.69
2023-03-29T11:47:20.282Z,100199.72
2023-03-29T11:49:51.979Z,100195.50
2023-03-29T11:52:36.135Z,100200.94
2023-03-29T11:55:10.255Z,100197.81
2023-03-29T11:57:40.480Z,100186.16
2023-03-29T12:00:22.961Z,100182.56
2023-03-29T12:03:22.141Z,100169.09
2023-03-29T12:05:52.736Z,100177.22
2023-03-29T12:08:27.027Z,100165.53
2023-03-29T12:11:22.984Z,100168.50
2023-03-29T12:13:57.741Z,100159.66
2023-03-29T12:16:35.767Z,100158.16
2023-03-29T12:19:32.883Z,100151.44
2023-03-29T12:22:01.237Z,100149.78
2023-03-29T12:24:31.520Z,100159.16
2023-03-29T12:27:20.936Z,100147.16
2023-03-29T12:30:04.619Z,100140.34
2023-03-29T12:32:41.819Z,100135.87
2023-03-29T12:35:22.764Z,100134.38
2023-03-29T12:38:10.588Z,100138.97
2023-03-29T12:40:44.590Z,100120.66
2023-03-29T12:43:33.307Z,100132.88
2023-03-29T12:46:07.619Z,100123.28
2023-03-29T12:48:38.593Z,100127.38
2023-03-29T12:51:18.740Z,100119.72
2023-03-29T12:53:48.903Z,100124.03
2023-03-29T12:56:20.206Z,100120.88
2023-03-29T12:58:55.455Z,100121.25
2023-03-29T13:01:30.534Z,100117.31
2023-03-29T13:04:01.381Z,100117.47
2023-03-29T13:06:34.913Z,100125.44
2023-03-29T13:09:19.869Z,100121.53
2023-03-29T13:11:55.011Z,100114.63
2023-03-29T13:14:26.462Z,100124.97
2023-03-29T13:17:17.711Z,100122.28
2023-03-29T13:19:47.787Z,100118.34
2023-03-29T13:22:49.981Z,100125.03
2023-03-29T13:25:25.971Z,100118.69
2023-03-29T13:27:53.991Z,100116.66
2023-03-29T13:30:31.814Z,100114.25
2023-03-29T13:33:18.876Z,100114.22
2023-03-29T13:36:34.754Z,100109.31
2023-03-29T13:39:04.513Z,100101.53
2023-03-29T13:41:39.078Z,100102.44
2023-03-29T13:44:41.188Z,100095.50
2023-03-29T13:47:36.723Z,100091.69
2023-03-29T13:50:35.251Z,100086.91
2023-03-29T13:53:22.252Z,100082.91
2023-03-29T13:55:52.492Z,100076.56
2023-03-29T13:58:38.534Z,100080.22
2023-03-29T14:01:23.690Z,100067.09
2023-03-29T14:03:53.299Z,100067.34
2023-03-29T14:06:32.364Z,100066.47
2023-03-29T14:09:06.061Z,100071.78
2023-03-29T14:11:33.926Z,100067.25
2023-03-29T14:14:04.166Z,100078.41
2023-03-29T14:16:35.914Z,100074.59
2023-03-29T14:19:06.481Z,100073.12
2023-03-29T14:21:34.268Z,100071.19
2023-03-29T14:24:02.294Z,100068.03
2023-03-29T14:26:37.519Z,100070.81
2023-03-29T14:29:06.897Z,100066.03
2023-03-29T14:31:36.763Z,100066.66
2023-03-29T14:34:06.706Z,100059.69
2023-03-29T14:36:34.378Z,100058.41
2023-03-29T14:39:11.624Z,100054.59
2023-03-29T14:41:39.654Z,100058.09
2023-03-29T14:44:08.051Z,100048.00
2023-03-29T14:46:36.099Z,100050.97
2023-03-29T14:49:04.100Z,100045.47
2023-03-29T14:51:32.566Z,100052.59
2023-03-29T14:54:00.900Z,100045.66
2023-03-29T14:56:29.166Z,100036.41
2023-03-29T14:58:57.591Z,100045.84
2023-03-29T15:01:26.369Z,100045.16
2023-03-29T15:03:56.595Z,100045.06
2023-03-29T15:06:26.303Z,100047.88
2023-03-29T15:09:05.092Z,100043.97
2023-03-29T15:11:34.660Z,100045.81
2023-03-29T15:14:04.662Z,100044.13
2023-03-29T15:16:33.302Z,100043.13
2023-03-29T15:19:04.850Z,100036.47
2023-03-29T15:21:35.587Z,100033.91
2023-03-29T15:24:05.059Z,100035.97
2023-03-29T15:26:35.000Z,100037.84
2023-03-29T15:29:12.655Z,100037.16
2023-03-29T15:31:54.350Z,100033.19
2023-03-29T15:34:27.938Z,100036.06
2023-03-29T15:36:55.965Z,100032.94
2023-03-29T15:39:25.444Z,100020.56
2023-03-29T15:41:53.852Z,100029.91
2023-03-29T15:44:27.030Z,100025.09
2023-03-29T15:46:56.005Z,100026.72
2023-03-29T15:49:23.843Z,100021.28
2023-03-29T15:51:52.488Z,100026.91
2023-03-29T15:54:23.729Z,100016.94
2023-03-29T15:56:54.312Z,100016.87
2023-03-29T15:59:22.969Z,100010.81
2023-03-29T16:01:50.984Z,100017.09
2023-03-29T16:04:20.501Z,100021.72
2023-03-29T16:06:50.204Z,100020.50
2023-03-29T16:09:17.850Z,100022.72
2023-03-29T16:11:46.384Z,100016.03
2023-03-29T16:14:24.032Z,100010.84
2023-03-29T16:16:52.971Z,100011.50
2023-03-29T16:19:20.871Z,100007.38
2023-03-29T16:21:48.608Z,100008.91
2023-03-29T16:24:25.028Z,100001.38
2023-03-29T16:26:55.332Z,100005.19
2023-03-29T16:29:24.710Z,100003.88
2023-03-29T16:31:53.416Z,100002.63
2023-03-29T16:34:21.805Z,100005.41
2023-03-29T16:36:49.945Z,99998.97
2023-03-29T16:39:17.639Z,100000.28
2023-03-29T16:41:45.594Z,99999.41
2023-03-29T16:44:16.945Z,99994.31
2023-03-29T16:46:44.933Z,99991.44
2023-03-29T16:49:14.452Z,99997.38
2023-03-29T16:51:42.530Z,99990.16
2023-03-29T16:54:10.350Z,99995.00
2023-03-29T16:56:38.460Z,99994.19
2023-03-29T16:59:06.278Z,100007.53
2023-03-29T17:01:34.439Z,99999.22
2023-03-29T17:04:02.471Z,99996.84
2023-03-29T17:06:30.370Z,99996.59
2023-03-29T17:08:58.944Z,99996.13
2023-03-29T17:11:27.485Z,99995.63
2023-03-29T17:13:55.239Z,100001.41
2023-03-29T17:16:23.007Z,99996.06
2023-03-29T17:18:51.098Z,99996.38
2023-03-29T17:21:23.112Z,99991.81
2023-03-29T17:23:56.350Z,100001.19
2023-03-29T17:26:24.168Z,99991.56
2023-03-29T17:28:56.675Z,100000.41
2023-03-29T17:31:24.907Z,99993.97
2023-03-29T17:33:52.759Z,100004.66
2023-03-29T17:36:20.683Z,100007.81
2023-03-29T17:38:49.737Z,100003.84
2023-03-29T17:41:18.097Z,100008.16
2023-03-29T17:43:49.274Z,100006.53
2023-03-29T17:46:18.991Z,100012.19
2023-03-29T17:48:47.101Z,100018.59
2023-03-29T17:51:15.511Z,100018.06
2023-03-29T17:53:44.013Z,100024.78
2023-03-29T17:56:14.716Z,100021.56
2023-03-29T17:58:43.097Z,100022.09
2023-03-29T18:01:12.157Z,100023.47
2023-03-29T18:03:42.049Z,100028.31
2023-03-29T18:06:10.266Z,100025.34
2023-03-29T18:08:38.832Z,100026.41
2023-03-29T18:11:18.465Z,100022.94
2023-03-29T18:13:46.387Z,100020.03
2023-03-29T18:16:14.888Z,100019.50
2023-03-29T18:18:43.042Z,100034.47
2023-03-29T18:21:11.448Z,100023.50
2023-03-29T18:23:44.413Z,100029.16
2023-03-29T18:26:12.539Z,100030.97
2023-03-29T18:28:41.581Z,100030.44
2023-03-29T18:31:10.805Z,100034.22
2023-03-29T18:33:42.307Z,100035.28
2023-03-29T18:36:12.970Z,100035.84
2023-03-29T18:38:45.709Z,100026.75
2023-03-29T18:41:14.135Z,100031.81
2023-03-29T18:43:44.555Z,100033.94
2023-03-29T18:46:13.075Z,100031.00
2023-03-29T18:48:41.563Z,100033.66
2023-03-29T18:51:12.021Z,100037.44
2023-03-29T18:53:40.503Z,100042.22
2023-03-29T18:56:08.269Z,100030.47
2023-03-29T18:58:36.348Z,100038.50
2023-03-29T19:01:05.869Z,100033.41
2023-03-29T19:03:34.733Z,100033.97
2023-03-29T19:06:04.042Z,100036.91
2023-03-29T19:08:33.062Z,100036.34
2023-03-29T19:11:02.531Z,100036.63
2023-03-29T19:13:30.630Z,100033.41
2023-03-29T19:15:58.803Z,100032.06
2023-03-29T19:18:27.138Z,100035.84
2023-03-29T19:20:55.294Z,100039.56
2023-03-29T19:23:24.453Z,100032.34
2023-03-29T19:25:57.372Z,100043.03
2023-03-29T19:28:26.131Z,100037.41
2023-03-29T19:30:54.714Z,100039.56
2023-03-29T19:33:22.701Z,100041.41
2023-03-29T19:35:51.584Z,100038.22
2023-03-29T19:38:20.484Z,100049.72
2023-03-29T19:40:50.149Z,100047.03
2023-03-29T19:43:19.072Z,100034.19
2023-03-29T19:45:48.358Z,100043.28
2023-03-29T19:48:22.532Z,100035.00
2023-03-29T19:50:52.345Z,100038.47
2023-03-29T19:53:20.281Z,100043.84
2023-03-29T19:55:48.012Z,100040.09
2023-03-29T19:58:16.157Z,100037.94
2023-03-29T20:00:43.901Z,100028.59
2023-03-29T20:03:12.619Z,100037.41
2023-03-29T20:05:40.685Z,100037.16
2023-03-29T20:08:09.067Z,100029.41
2023-03-29T20:10:37.118Z,100035.53
2023-03-29T20:13:04.950Z,100036.34
2023-03-29T20:15:33.162Z,100029.12
2023-03-29T20:18:01.522Z,100031.25
2023-03-29T20:20:29.382Z,100029.12
2023-03-29T20:22:57.352Z,100036.34
2023-03-29T20:25:25.384Z,100036.87
2023-03-29T20:27:53.333Z,100036.59
2023-03-29T20:30:21.116Z,100031.00
2023-03-29T20:32:49.643Z,100029.12
2023-03-29T20:35:17.442Z,100027.00
2023-03-29T20:37:45.093Z,100027.00
2023-03-29T20:40:13.312Z,100020.31
2023-03-29T20:42:41.434Z,100017.63
2023-03-29T20:45:09.590Z,100017.91
2023-03-29T20:47:37.473Z,100019.50
2023-03-29T20:50:05.696Z,100010.94
2023-03-29T20:52:33.518Z,100014.66
2023-03-29T20:55:01.507Z,100014.66
2023-03-29T20:57:30.574Z,100018.66
2023-03-29T20:59:58.434Z,100014.94
2023-03-29T21:02:26.543Z,100009.84
2023-03-29T21:04:54.339Z,100007.44
2023-03-29T21:07:21.956Z,100007.72
2023-03-29T21:09:50.173Z,100010.37
2023-03-29T21:12:17.785Z,100006.66
2023-03-29T21:14:45.438Z,100007.97
2023-03-29T21:17:13.394Z,100014.41
2023-03-29T21:19:41.182Z,100014.44
2023-03-29T21:22:09.228Z,100008.78
2023-03-29T21:24:37.180Z,100010.91
2023-03-29T21:27:05.527Z,100012.25
2023-03-29T21:29:33.417Z,100016.03
2023-03-29T21:32:01.512Z,100006.66
2023-03-29T21:34:29.119Z,100011.44
2023-03-29T21:36:56.753Z,100001.03
2023-03-29T21:39:26.331Z,100000.50
2023-03-29T21:41:54.395Z,100000.50
2023-03-29T21:44:22.116Z,100003.44
2023-03-29T21:46:50.054Z,100004.78
2023-03-29T21:49:18.016Z,100002.91
2023-03-29T21:51:46.391Z,99999.16
2023-03-29T21:54:14.280Z,99999.16
2023-03-29T21:56:42.055Z,99988.72
2023-03-29T21:59:09.959Z,99997.28
2023-03-29T22:01:37.878Z,99996.22
2023-03-29T22:04:05.823Z,99986.59
2023-03-29T22:06:33.600Z,99984.47
2023-03-29T22:09:01.644Z,99986.59
2023-03-29T22:11:30.566Z,99980.72
2023-03-29T22:13:58.441Z,99980.72
2023-03-29T22:16:26.160Z,99977.81
2023-03-29T22:18:54.306Z,99981.00
2023-03-29T22:21:24.057Z,99988.75
2023-03-29T22:23:54.744Z,99986.06
2023-03-29T22:26:25.060Z,99992.22
2023-03-29T22:28:53.207Z,99990.88
2023-03-29T22:31:22.260Z,99993.00
2023-03-29T22:33:50.390Z,99986.88
2023-03-29T22:36:23.684Z,99990.34
2023-03-29T22:38:52.307Z,99993.00
2023-03-29T22:41:21.360Z,99998.63
2023-03-29T22:43:51.344Z,99987.13
2023-03-29T22:46:19.744Z,99983.94
2023-03-29T22:48:47.870Z,99983.94
2023-03-29T22:51:15.725Z,99985.53
2023-03-29T22:53:44.058Z,99991.09
2023-03-29T22:56:11.716Z,99992.97
2023-03-29T22:58:39.483Z,99988.72
2023-03-29T23:01:07.614Z,99989.22
2023-03-29T23:03:35.760Z,99993.25
2023-03-29T23:06:03.697Z,100000.19
2023-03-29T23:08:33.026Z,99997.56
2023-03-29T23:11:01.911Z,99998.09
2023-03-29T23:13:30.102Z,99997.78
2023-03-29T23:15:59.328Z,99994.56
2023-03-29T23:18:28.860Z,99989.47
2023-03-29T23:20:57.674Z,99993.72
2023-03-29T23:23:27.095Z,99986.75
2023-03-29T23:25:55.252Z,99997.34
2023-03-29T23:28:25.498Z,100000.31
2023-03-29T23:30:58.782Z,100001.91
2023-03-29T23:33:27.048Z,99998.38
2023-03-29T23:35:55.151Z,100006.06
2023-03-29T23:38:23.066Z,99997.75
2023-03-29T23:40:59.176Z,99996.13
2023-03-29T23:43:31.489Z,99996.38
2023-03-29T23:46:00.689Z,100003.47
2023-03-29T23:48:29.215Z,99998.66
2023-03-29T23:50:57.195Z,99995.13
2023-03-29T23:53:25.955Z,99996.69
2023-03-29T23:56:01.262Z,99993.47
2023-03-29T23:58:33.442Z,99996.09
